createdAt,value
2023-05-01T00:01:04.621Z,5.17
2023-05-01T00:02:04.549Z,5.19
2023-05-01T00:03:04.774Z,5.16
2023-05-01T00:04:04.906Z,5.12
2023-05-01T00:05:04.627Z,5.13
2023-05-01T00:06:04.582Z,5.14
2023-05-01T00:07:04.574Z,5.20
2023-05-01T00:08:04.498Z,5.19
2023-05-01T00:09:04.504Z,5.19
2023-05-01T00:10:04.499Z,5.19
2023-05-01T00:11:04.488Z,5.22
2023-05-01T00:12:04.335Z,5.20
2023-05-01T00:13:04.293Z,5.19
2023-05-01T00:14:04.464Z,5.14
2023-05-01T00:15:04.449Z,5.13
2023-05-01T00:16:04.478Z,5.16
2023-05-01T00:17:04.442Z,5.17
2023-05-01T00:18:04.473Z,5.28
2023-05-01T00:19:04.344Z,5.30
2023-05-01T00:20:04.337Z,5.32
2023-05-01T00:21:04.325Z,5.32
2023-05-01T00:22:04.384Z,5.38
2023-05-01T00:23:04.449Z,5.40
2023-05-01T00:24:04.349Z,5.46
2023-05-01T00:25:04.257Z,5.46
2023-05-01T00:26:04.251Z,5.45
2023-05-01T00:27:04.393Z,5.46
2023-05-01T00:28:04.372Z,5.46
2023-05-01T00:29:04.365Z,5.45
2023-05-01T00:30:04.300Z,5.43
2023-05-01T00:31:04.231Z,5.46
2023-05-01T00:32:04.350Z,5.48
2023-05-01T00:33:04.329Z,5.49
2023-05-01T00:34:04.076Z,5.46
2023-05-01T00:35:04.167Z,5.46
2023-05-01T00:36:04.137Z,5.46
2023-05-01T00:37:04.128Z,5.46
2023-05-01T00:38:04.176Z,5.45
2023-05-01T00:39:04.235Z,5.48
2023-05-01T00:40:04.137Z,5.56
2023-05-01T00:41:04.130Z,5.64
2023-05-01T00:42:04.104Z,5.73
2023-05-01T00:43:04.162Z,5.81
2023-05-01T00:44:04.237Z,5.92
2023-05-01T00:45:04.139Z,5.98
2023-05-01T00:46:04.158Z,6.09
2023-05-01T00:47:04.111Z,6.14
2023-05-01T00:48:04.142Z,6.22
2023-05-01T00:49:04.176Z,6.29
2023-05-01T00:50:04.096Z,6.35
2023-05-01T00:51:04.057Z,6.43
2023-05-01T00:52:04.050Z,6.51
2023-05-01T00:53:04.039Z,6.53
2023-05-01T00:54:04.092Z,6.56
2023-05-01T00:55:03.913Z,6.63
2023-05-01T00:56:03.986Z,6.68
2023-05-01T00:57:04.048Z,6.71
2023-05-01T00:58:03.960Z,6.68
2023-05-01T00:59:03.964Z,6.71
2023-05-01T01:00:03.957Z,6.71
2023-05-01T01:01:04.069Z,6.71
2023-05-01T01:02:03.922Z,6.79
2023-05-01T01:03:03.923Z,6.83
2023-05-01T01:04:03.897Z,6.86
2023-05-01T01:05:03.889Z,6.91
2023-05-01T01:06:03.936Z,6.91
2023-05-01T01:07:04.017Z,6.90
2023-05-01T01:08:03.870Z,6.89
2023-05-01T01:09:03.867Z,6.94
2023-05-01T01:10:03.844Z,6.95
2023-05-01T01:11:03.919Z,6.94
2023-05-01T01:12:03.920Z,6.91
2023-05-01T01:13:03.778Z,6.94
2023-05-01T01:14:03.699Z,6.97
2023-05-01T01:15:03.778Z,7.02
2023-05-01T01:16:03.802Z,6.98
2023-05-01T01:17:03.821Z,7.07
2023-05-01T01:18:03.890Z,7.05
2023-05-01T01:19:03.730Z,7.13
2023-05-01T01:20:03.720Z,7.12
2023-05-01T01:21:03.703Z,7.13
2023-05-01T01:22:03.772Z,7.13
2023-05-01T01:23:03.693Z,7.09
2023-05-01T01:24:03.672Z,7.09
2023-05-01T01:25:03.655Z,7.22
2023-05-01T01:26:03.658Z,7.19
2023-05-01T01:27:03.722Z,7.23
2023-05-01T01:28:03.698Z,7.16
2023-05-01T01:29:03.496Z,7.16
2023-05-01T01:30:03.586Z,7.13
2023-05-01T01:31:03.701Z,7.08
2023-05-01T01:32:03.608Z,7.05
2023-05-01T01:33:03.773Z,7.01
2023-05-01T01:34:03.590Z,7.01
2023-05-01T01:35:03.591Z,6.94
2023-05-01T01:36:03.569Z,6.90
2023-05-01T01:37:03.535Z,6.86
2023-05-01T01:38:03.612Z,6.79
2023-05-01T01:39:03.575Z,6.76
2023-05-01T01:40:03.556Z,6.72
2023-05-01T01:41:03.613Z,6.71
2023-05-01T01:42:03.522Z,6.69
2023-05-01T01:43:03.509Z,6.65
2023-05-01T01:44:03.488Z,6.66
2023-05-01T01:45:03.543Z,6.68
2023-05-01T01:46:03.510Z,6.61
2023-05-01T01:47:03.450Z,6.62
2023-05-01T01:48:03.519Z,6.62
2023-05-01T01:49:03.430Z,6.59
2023-05-01T01:50:03.393Z,6.56
2023-05-01T01:51:03.367Z,6.54
2023-05-01T01:52:03.389Z,6.53
2023-05-01T01:53:03.426Z,6.54
2023-05-01T01:54:03.427Z,6.54
2023-05-01T01:55:03.391Z,6.59
2023-05-01T01:56:03.938Z,6.59
2023-05-01T01:57:03.363Z,6.61
2023-05-01T01:58:03.325Z,6.59
2023-05-01T01:59:03.315Z,6.53
2023-05-01T02:00:03.222Z,6.51
2023-05-01T02:01:03.273Z,6.44
2023-05-01T02:02:03.443Z,6.47
2023-05-01T02:03:03.234Z,6.44
2023-05-01T02:04:03.340Z,6.46
2023-05-01T02:05:03.326Z,6.43
2023-05-01T02:06:03.141Z,6.41
2023-05-01T02:07:03.243Z,6.40
2023-05-01T02:08:03.242Z,6.38
2023-05-01T02:09:03.252Z,6.32
2023-05-01T02:10:03.274Z,6.32
2023-05-01T02:11:03.275Z,6.32
2023-05-01T02:12:03.275Z,6.30
2023-05-01T02:13:03.150Z,6.29
2023-05-01T02:14:03.126Z,6.29
2023-05-01T02:15:03.131Z,6.29
2023-05-01T02:16:03.309Z,6.26
2023-05-01T02:17:03.240Z,6.25
2023-05-01T02:18:03.160Z,6.22
2023-05-01T02:19:03.115Z,6.22
2023-05-01T02:20:03.119Z,6.21
2023-05-01T02:21:03.116Z,6.19
2023-05-01T02:22:03.231Z,6.16
2023-05-01T02:23:03.108Z,6.16
2023-05-01T02:24:03.047Z,6.14
2023-05-01T02:25:02.978Z,6.13
2023-05-01T02:26:03.058Z,6.10
2023-05-01T02:27:03.008Z,6.10
2023-05-01T02:28:02.962Z,6.07
2023-05-01T02:29:03.087Z,6.09
2023-05-01T02:30:03.013Z,6.01
2023-05-01T02:31:03.026Z,6.06
2023-05-01T02:32:03.075Z,6.01
2023-05-01T02:33:03.143Z,6.01
2023-05-01T02:34:02.950Z,5.96
2023-05-01T02:35:02.977Z,5.92
2023-05-01T02:36:02.909Z,5.89
2023-05-01T02:37:02.922Z,5.88
2023-05-01T02:38:02.919Z,5.91
2023-05-01T02:39:02.923Z,5.91
2023-05-01T02:40:02.913Z,5.86
2023-05-01T02:41:02.900Z,5.88
2023-05-01T02:42:02.959Z,5.89
2023-05-01T02:43:02.867Z,5.83
2023-05-01T02:44:02.865Z,5.83
2023-05-01T02:45:02.868Z,5.86
2023-05-01T02:46:02.927Z,5.82
2023-05-01T02:47:02.824Z,5.81
2023-05-01T02:48:02.926Z,5.78
2023-05-01T02:49:02.977Z,5.77
2023-05-01T02:50:02.834Z,5.73
2023-05-01T02:51:02.601Z,5.78
2023-05-01T02:52:02.786Z,5.74
2023-05-01T02:53:02.795Z,5.71
2023-05-01T02:54:02.725Z,5.68
2023-05-01T02:55:02.735Z,5.70
2023-05-01T02:56:02.687Z,5.68
2023-05-01T02:57:02.656Z,5.67
2023-05-01T02:58:02.636Z,5.66
2023-05-01T02:59:02.780Z,5.60
2023-05-01T03:00:02.694Z,5.63
2023-05-01T03:01:02.809Z,5.57
2023-05-01T03:02:02.641Z,5.59
2023-05-01T03:03:02.711Z,5.66
2023-05-01T03:04:02.693Z,5.60
2023-05-01T03:05:02.587Z,5.63
2023-05-01T03:06:02.624Z,5.59
2023-05-01T03:07:02.696Z,5.63
2023-05-01T03:08:02.568Z,5.60
2023-05-01T03:09:02.680Z,5.60
2023-05-01T03:10:02.635Z,5.57
2023-05-01T03:11:02.657Z,5.60
2023-05-01T03:12:02.604Z,5.63
2023-05-01T03:13:02.541Z,5.60
2023-05-01T03:14:02.547Z,5.57
2023-05-01T03:15:02.567Z,5.56
2023-05-01T03:16:02.628Z,5.57
2023-05-01T03:17:02.486Z,5.50
2023-05-01T03:18:02.592Z,5.57
2023-05-01T03:19:02.388Z,5.63
2023-05-01T03:20:02.589Z,5.60
2023-05-01T03:21:02.397Z,5.63
2023-05-01T03:22:02.396Z,5.68
2023-05-01T03:23:02.436Z,5.71
2023-05-01T03:24:02.507Z,5.71
2023-05-01T03:25:02.387Z,5.74
2023-05-01T03:26:02.304Z,5.75
2023-05-01T03:27:02.301Z,5.77
2023-05-01T03:28:02.338Z,5.81
2023-05-01T03:29:02.262Z,5.82
2023-05-01T03:30:02.253Z,5.82
2023-05-01T03:31:02.217Z,5.81
2023-05-01T03:32:02.291Z,5.78
2023-05-01T03:33:02.334Z,5.75
2023-05-01T03:34:02.075Z,5.73
2023-05-01T03:35:02.334Z,5.73
2023-05-01T03:36:02.313Z,5.71
2023-05-01T03:37:02.235Z,5.66
2023-05-01T03:38:02.249Z,5.64
2023-05-01T03:39:02.164Z,5.63
2023-05-01T03:40:02.175Z,5.57
2023-05-01T03:41:02.023Z,5.55
2023-05-01T03:42:02.193Z,5.50
2023-05-01T03:43:02.124Z,5.43
2023-05-01T03:44:02.215Z,5.48
2023-05-01T03:45:02.134Z,5.46
2023-05-01T03:46:02.161Z,5.41
2023-05-01T03:47:02.079Z,5.43
2023-05-01T03:48:02.225Z,5.40
2023-05-01T03:49:02.104Z,5.40
2023-05-01T03:50:02.204Z,5.37
2023-05-01T03:51:02.101Z,5.37
2023-05-01T03:52:02.114Z,5.35
2023-05-01T03:53:02.035Z,5.35
2023-05-01T03:54:02.040Z,5.35
2023-05-01T03:55:02.049Z,5.34
2023-05-01T03:56:01.982Z,5.37
2023-05-01T03:57:02.088Z,5.40
2023-05-01T03:58:02.017Z,5.38
2023-05-01T03:59:01.970Z,5.37
2023-05-01T04:00:02.039Z,5.35
2023-05-01T04:01:01.988Z,5.40
2023-05-01T04:02:02.018Z,5.35
2023-05-01T04:03:02.557Z,5.37
2023-05-01T04:04:02.187Z,5.41
2023-05-01T04:05:01.960Z,5.43
2023-05-01T04:06:01.930Z,5.43
2023-05-01T04:07:01.940Z,5.48
2023-05-01T04:08:01.990Z,5.46
2023-05-01T04:09:01.729Z,5.49
2023-05-01T04:10:01.949Z,5.49
2023-05-01T04:11:01.820Z,5.55
2023-05-01T04:12:01.965Z,5.53
2023-05-01T04:13:01.859Z,5.53
2023-05-01T04:14:01.867Z,5.53
2023-05-01T04:15:01.638Z,5.49
2023-05-01T04:16:01.833Z,5.52
2023-05-01T04:17:01.821Z,5.59
2023-05-01T04:18:02.042Z,5.64
2023-05-01T04:19:01.778Z,5.68
2023-05-01T04:20:01.767Z,5.78
2023-05-01T04:21:01.740Z,5.82
2023-05-01T04:22:01.727Z,5.85
2023-05-01T04:23:01.717Z,5.92
2023-05-01T04:24:01.834Z,5.93
2023-05-01T04:25:01.790Z,5.96
2023-05-01T04:26:01.737Z,6.00
2023-05-01T04:27:01.798Z,6.00
2023-05-01T04:28:01.769Z,6.04
2023-05-01T04:29:01.664Z,6.06
2023-05-01T04:30:01.749Z,6.11
2023-05-01T04:31:01.678Z,6.19
2023-05-01T04:32:01.762Z,6.28
2023-05-01T04:33:01.736Z,6.36
2023-05-01T04:34:01.575Z,6.41
2023-05-01T04:35:01.420Z,6.50
2023-05-01T04:36:01.689Z,6.56
2023-05-01T04:37:01.595Z,6.65
2023-05-01T04:38:01.548Z,6.68
2023-05-01T04:39:01.514Z,6.69
2023-05-01T04:40:01.503Z,6.71
2023-05-01T04:41:01.540Z,6.76
2023-05-01T04:42:01.449Z,6.76
2023-05-01T04:43:01.319Z,6.87
2023-05-01T04:44:01.468Z,6.99
2023-05-01T04:45:01.356Z,7.13
2023-05-01T04:46:01.467Z,7.27
2023-05-01T04:47:01.615Z,7.41
2023-05-01T04:48:01.530Z,7.66
2023-05-01T04:49:01.374Z,7.99
2023-05-01T04:50:01.488Z,8.32
2023-05-01T04:51:01.512Z,8.60
2023-05-01T04:52:01.303Z,8.96
2023-05-01T04:53:01.391Z,9.31
2023-05-01T04:54:01.280Z,9.60
2023-05-01T04:55:01.330Z,9.64
2023-05-01T04:56:01.198Z,9.76
2023-05-01T04:57:01.223Z,9.78
2023-05-01T04:58:01.202Z,9.70
2023-05-01T04:59:01.152Z,9.71
2023-05-01T05:00:01.179Z,9.67
2023-05-01T05:01:01.259Z,9.61
2023-05-01T05:02:01.231Z,9.75
2023-05-01T05:03:01.401Z,9.76
2023-05-01T05:04:01.431Z,9.75
2023-05-01T05:05:01.289Z,9.88
2023-05-01T05:06:01.226Z,9.96
2023-05-01T05:07:01.259Z,10.25
2023-05-01T05:08:01.139Z,10.53
2023-05-01T05:09:01.229Z,10.39
2023-05-01T05:10:01.173Z,10.06
2023-05-01T05:11:01.222Z,9.83
2023-05-01T05:12:01.204Z,9.76
2023-05-01T05:13:01.289Z,9.53
2023-05-01T05:14:01.208Z,9.58
2023-05-01T05:15:01.209Z,9.67
2023-05-01T05:16:01.173Z,9.63
2023-05-01T05:17:01.173Z,9.67
2023-05-01T05:18:01.265Z,9.70
2023-05-01T05:19:01.150Z,9.97
2023-05-01T05:20:01.150Z,10.04
2023-05-01T05:21:01.128Z,10.25
2023-05-01T05:22:01.125Z,10.36
2023-05-01T05:23:01.117Z,10.51
2023-05-01T05:24:01.131Z,10.60
2023-05-01T05:25:01.052Z,10.92
2023-05-01T05:26:01.162Z,11.25
2023-05-01T05:27:01.034Z,11.28
2023-05-01T05:28:01.033Z,11.34
2023-05-01T05:29:01.036Z,11.71
2023-05-01T05:30:01.105Z,11.74
2023-05-01T05:31:01.025Z,11.67
2023-05-01T05:32:00.987Z,11.36
2023-05-01T05:33:01.061Z,11.09
2023-05-01T05:34:00.951Z,10.95
2023-05-01T05:35:00.970Z,10.63
2023-05-01T05:36:00.990Z,10.46
2023-05-01T05:37:00.904Z,10.43
2023-05-01T05:38:00.921Z,10.37
2023-05-01T05:39:00.937Z,10.43
2023-05-01T05:40:00.874Z,10.22
2023-05-01T05:41:01.009Z,10.40
2023-05-01T05:42:00.861Z,10.60
2023-05-01T05:43:00.860Z,10.74
2023-05-01T05:44:00.872Z,10.83
2023-05-01T05:45:00.859Z,10.91
2023-05-01T05:46:01.044Z,10.98
2023-05-01T05:47:00.849Z,10.96
2023-05-01T05:48:00.889Z,11.01
2023-05-01T05:49:00.772Z,11.20
2023-05-01T05:50:00.768Z,11.35
2023-05-01T05:51:00.758Z,11.53
2023-05-01T05:52:00.817Z,11.78
2023-05-01T05:53:00.725Z,11.86
2023-05-01T05:54:00.756Z,12.13
2023-05-01T05:55:00.771Z,12.20
2023-05-01T05:56:00.640Z,12.08
2023-05-01T05:57:00.817Z,12.27
2023-05-01T05:58:00.718Z,12.60
2023-05-01T05:59:00.725Z,12.54
2023-05-01T06:00:00.740Z,12.42
2023-05-01T06:01:00.659Z,12.41
2023-05-01T06:02:00.716Z,12.51
2023-05-01T06:03:00.651Z,12.66
2023-05-01T06:04:00.694Z,12.51
2023-05-01T06:05:00.695Z,12.46
2023-05-01T06:06:00.625Z,12.33
2023-05-01T06:07:00.633Z,12.46
2023-05-01T06:08:00.464Z,12.42
2023-05-01T06:09:00.666Z,12.37
2023-05-01T06:10:00.654Z,12.38
2023-05-01T06:11:00.607Z,12.21
2023-05-01T06:12:00.618Z,12.13
2023-05-01T06:13:11.681Z,12.13
2023-05-01T06:14:00.897Z,12.19
2023-05-01T06:15:00.464Z,12.49
2023-05-01T06:16:00.692Z,12.62
2023-05-01T06:17:00.486Z,12.71
2023-05-01T06:18:00.546Z,12.75
2023-05-01T06:19:00.610Z,12.59
2023-05-01T06:20:00.456Z,12.67
2023-05-01T06:21:00.562Z,12.54
2023-05-01T06:22:00.362Z,12.49
2023-05-01T06:23:00.411Z,12.67
2023-05-01T06:24:00.476Z,12.84
2023-05-01T06:25:00.472Z,12.69
2023-05-01T06:26:00.379Z,12.71
2023-05-01T06:27:01.573Z,13.06
2023-05-01T06:28:00.396Z,13.61
2023-05-01T06:29:00.381Z,13.95
2023-05-01T06:30:00.230Z,13.88
2023-05-01T06:31:00.449Z,14.17
2023-05-01T06:32:00.404Z,14.19
2023-05-01T06:33:00.424Z,14.07
2023-05-01T06:34:00.437Z,14.57
2023-05-01T06:35:00.311Z,14.95
2023-05-01T06:36:00.320Z,14.86
2023-05-01T06:37:00.322Z,15.03
2023-05-01T06:38:00.369Z,15.26
2023-05-01T06:39:00.318Z,15.36
2023-05-01T06:40:00.251Z,15.35
2023-05-01T06:41:00.271Z,15.51
2023-05-01T06:42:00.290Z,15.89
2023-05-01T06:43:00.144Z,16.09
2023-05-01T06:44:00.242Z,15.74
2023-05-01T06:45:00.341Z,15.64
2023-05-01T06:46:00.269Z,15.86
2023-05-01T06:47:00.266Z,15.89
2023-05-01T06:48:00.248Z,15.88
2023-05-01T06:49:00.279Z,15.66
2023-05-01T06:50:01.367Z,15.96
2023-05-01T06:51:00.191Z,16.34
2023-05-01T06:52:00.018Z,16.14
2023-05-01T06:53:00.161Z,16.14
2023-05-01T06:54:00.226Z,15.92
2023-05-01T06:55:00.159Z,15.72
2023-05-01T06:56:00.146Z,15.57
2023-05-01T06:56:59.961Z,15.86
2023-05-01T06:58:02.743Z,16.15
2023-05-01T06:59:00.068Z,16.31
2023-05-01T07:00:00.167Z,16.38
2023-05-01T07:01:00.134Z,16.35
2023-05-01T07:02:00.098Z,16.26
2023-05-01T07:03:00.199Z,16.09
2023-05-01T07:04:00.160Z,16.20
2023-05-01T07:05:00.062Z,16.41
2023-05-01T07:05:59.850Z,16.58
2023-05-01T07:06:59.859Z,16.44
2023-05-01T07:08:01.617Z,16.15
2023-05-01T07:08:59.933Z,15.59
2023-05-01T07:10:00.363Z,15.64
2023-05-01T07:10:59.933Z,15.75
2023-05-01T07:12:00.028Z,15.76
2023-05-01T07:12:59.923Z,15.99
2023-05-01T07:13:59.918Z,15.79
2023-05-01T07:14:59.954Z,15.68
2023-05-01T07:15:59.890Z,15.52
2023-05-01T07:17:00.044Z,15.48
2023-05-01T07:17:59.968Z,15.56
2023-05-01T07:18:59.898Z,15.74
2023-05-01T07:19:59.833Z,16.11
2023-05-01T07:20:59.859Z,16.49
2023-05-01T07:21:59.713Z,16.77
2023-05-01T07:22:59.808Z,17.07
2023-05-01T07:23:59.801Z,17.18
2023-05-01T07:24:59.872Z,17.22
2023-05-01T07:25:59.783Z,17.17
2023-05-01T07:26:59.743Z,17.15
2023-05-01T07:27:59.813Z,17.43
2023-05-01T07:28:59.788Z,17.29
2023-05-01T07:29:59.870Z,17.73
2023-05-01T07:30:59.726Z,18.12
2023-05-01T07:31:59.777Z,18.50
2023-05-01T07:32:59.811Z,18.76
2023-05-01T07:33:59.681Z,19.18
2023-05-01T07:34:59.694Z,19.70
2023-05-01T07:35:59.787Z,20.13
2023-05-01T07:36:59.548Z,20.05
2023-05-01T07:37:59.697Z,19.70
2023-05-01T07:38:59.673Z,19.38
2023-05-01T07:39:59.647Z,19.29
2023-05-01T07:40:59.697Z,19.23
2023-05-01T07:41:59.647Z,19.60
2023-05-01T07:42:59.438Z,19.66
2023-05-01T07:43:59.450Z,19.40
2023-05-01T07:44:59.586Z,18.95
2023-05-01T07:45:59.493Z,18.65
2023-05-01T07:46:59.605Z,18.55
2023-05-01T07:47:59.580Z,18.68
2023-05-01T07:48:59.453Z,19.06
2023-05-01T07:49:59.429Z,18.86
2023-05-01T07:50:59.430Z,18.50
2023-05-01T07:51:59.369Z,18.31
2023-05-01T07:52:59.356Z,18.59
2023-05-01T07:53:59.487Z,18.43
2023-05-01T07:54:59.463Z,18.65
2023-05-01T07:55:59.371Z,19.02
2023-05-01T07:56:59.351Z,19.35
2023-05-01T07:57:59.736Z,19.60
2023-05-01T07:58:59.314Z,19.29
2023-05-01T07:59:59.466Z,19.02
2023-05-01T08:00:59.328Z,19.06
2023-05-01T08:01:59.335Z,19.13
2023-05-01T08:02:59.326Z,19.21
2023-05-01T08:03:59.331Z,18.73
2023-05-01T08:04:59.313Z,18.33
2023-05-01T08:05:59.319Z,18.24
2023-05-01T08:06:59.307Z,18.74
2023-05-01T08:07:59.364Z,19.01
2023-05-01T08:08:59.324Z,18.99
2023-05-01T08:10:00.236Z,19.17
2023-05-01T08:10:59.336Z,19.46
2023-05-01T08:11:59.277Z,19.72
2023-05-01T08:12:59.292Z,19.70
2023-05-01T08:13:59.380Z,19.33
2023-05-01T08:14:59.331Z,19.39
2023-05-01T08:15:59.371Z,19.02
2023-05-01T08:16:59.327Z,18.97
2023-05-01T08:17:59.207Z,19.06
2023-05-01T08:18:59.200Z,19.10
2023-05-01T08:19:59.328Z,19.42
2023-05-01T08:20:59.134Z,19.51
2023-05-01T08:21:59.035Z,19.78
2023-05-01T08:22:59.282Z,19.53
2023-05-01T08:23:59.335Z,19.46
2023-05-01T08:24:59.329Z,19.58
2023-05-01T08:25:59.236Z,19.39
2023-05-01T08:26:59.215Z,19.65
2023-05-01T08:27:59.341Z,19.72
2023-05-01T08:28:59.156Z,19.97
2023-05-01T08:29:59.311Z,20.21
2023-05-01T08:30:59.148Z,20.38
2023-05-01T08:31:59.234Z,20.51
2023-05-01T08:32:59.264Z,20.12
2023-05-01T08:33:59.144Z,19.72
2023-05-01T08:34:59.122Z,19.68
2023-05-01T08:35:59.099Z,20.02
2023-05-01T08:36:58.890Z,20.46
2023-05-01T08:37:59.026Z,20.81
2023-05-01T08:38:58.989Z,21.34
2023-05-01T08:39:59.102Z,21.78
2023-05-01T08:40:58.984Z,22.32
2023-05-01T08:41:59.032Z,22.84
2023-05-01T08:42:59.075Z,23.38
2023-05-01T08:43:58.960Z,23.42
2023-05-01T08:44:58.933Z,22.65
2023-05-01T08:45:58.974Z,22.74
2023-05-01T08:46:59.086Z,22.83
2023-05-01T08:47:58.940Z,22.44
2023-05-01T08:48:58.945Z,21.88
2023-05-01T08:49:59.081Z,21.17
2023-05-01T08:50:58.976Z,20.99
2023-05-01T08:51:58.704Z,21.48
2023-05-01T08:52:59.003Z,21.46
2023-05-01T08:53:58.843Z,21.16
2023-05-01T08:54:58.856Z,21.09
2023-05-01T08:55:58.950Z,21.04
2023-05-01T08:56:58.814Z,21.29
2023-05-01T08:57:58.748Z,21.36
2023-05-01T08:58:58.774Z,21.20
2023-05-01T08:59:58.884Z,21.35
2023-05-01T09:00:58.935Z,21.78
2023-05-01T09:01:58.915Z,22.01
2023-05-01T09:02:58.792Z,22.01
2023-05-01T09:03:58.879Z,22.10
2023-05-01T09:04:58.812Z,22.06
2023-05-01T09:05:58.916Z,22.25
2023-05-01T09:06:58.607Z,21.98
2023-05-01T09:07:58.738Z,21.17
2023-05-01T09:08:58.698Z,20.86
2023-05-01T09:09:58.970Z,21.08
2023-05-01T09:10:58.804Z,21.21
2023-05-01T09:11:58.750Z,21.57
2023-05-01T09:12:58.661Z,21.53
2023-05-01T09:13:58.637Z,21.88
2023-05-01T09:14:58.761Z,22.06
2023-05-01T09:15:58.692Z,22.07
2023-05-01T09:16:58.667Z,21.97
2023-05-01T09:17:59.657Z,22.17
2023-05-01T09:18:58.633Z,22.52
2023-05-01T09:19:58.813Z,22.86
2023-05-01T09:20:58.589Z,23.38
2023-05-01T09:21:58.545Z,23.86
2023-05-01T09:22:58.549Z,24.10
2023-05-01T09:23:58.538Z,24.14
2023-05-01T09:24:58.595Z,23.60
2023-05-01T09:25:58.561Z,23.50
2023-05-01T09:26:58.544Z,23.31
2023-05-01T09:27:58.601Z,23.35
2023-05-01T09:28:58.502Z,23.49
2023-05-01T09:29:58.694Z,23.68
2023-05-01T09:30:58.449Z,23.94
2023-05-01T09:31:58.592Z,23.67
2023-05-01T09:32:58.582Z,23.34
2023-05-01T09:33:58.503Z,23.60
2023-05-01T09:34:58.545Z,23.55
2023-05-01T09:35:58.455Z,23.40
2023-05-01T09:36:58.345Z,23.20
2023-05-01T09:37:58.409Z,22.89
2023-05-01T09:38:58.477Z,22.90
2023-05-01T09:39:58.645Z,23.15
2023-05-01T09:40:58.438Z,23.87
2023-05-01T09:41:58.422Z,24.57
2023-05-01T09:42:58.404Z,24.26
2023-05-01T09:43:58.477Z,23.89
2023-05-01T09:44:58.382Z,24.05
2023-05-01T09:45:58.409Z,24.16
2023-05-01T09:46:58.294Z,24.64
2023-05-01T09:47:58.369Z,24.98
2023-05-01T09:48:58.245Z,25.61
2023-05-01T09:49:58.489Z,26.31
2023-05-01T09:50:58.301Z,26.95
2023-05-01T09:51:58.197Z,27.06
2023-05-01T09:52:58.251Z,26.80
2023-05-01T09:53:58.187Z,26.99
2023-05-01T09:54:58.298Z,27.64
2023-05-01T09:55:58.255Z,28.19
2023-05-01T09:56:58.313Z,27.95
2023-05-01T09:57:58.112Z,28.28
2023-05-01T09:58:58.145Z,28.65
2023-05-01T09:59:58.881Z,29.01
2023-05-01T10:00:58.309Z,29.18
2023-05-01T10:01:58.335Z,29.08
2023-05-01T10:02:58.302Z,28.77
2023-05-01T10:03:58.297Z,29.26
2023-05-01T10:04:58.226Z,30.14
2023-05-01T10:05:58.218Z,31.05
2023-05-01T10:06:58.352Z,31.68
2023-05-01T10:07:58.218Z,32.35
2023-05-01T10:08:58.152Z,32.25
2023-05-01T10:10:00.073Z,31.87
2023-05-01T10:10:58.242Z,31.46
2023-05-01T10:11:58.188Z,31.60
2023-05-01T10:12:57.993Z,31.60
2023-05-01T10:13:58.103Z,31.60
2023-05-01T10:14:58.137Z,32.14
2023-05-01T10:15:58.159Z,32.79
2023-05-01T10:16:58.293Z,33.31
2023-05-01T10:17:58.227Z,32.52
2023-05-01T10:18:58.206Z,32.15
2023-05-01T10:19:58.371Z,31.77
2023-05-01T10:20:58.147Z,31.43
2023-05-01T10:21:58.073Z,31.67
2023-05-01T10:22:58.076Z,30.52
2023-05-01T10:23:58.000Z,29.16
2023-05-01T10:24:58.138Z,28.11
2023-05-01T10:25:58.019Z,27.50
2023-05-01T10:26:58.103Z,26.69
2023-05-01T10:27:58.038Z,26.24
2023-05-01T10:28:57.955Z,25.72
2023-05-01T10:29:58.289Z,25.06
2023-05-01T10:30:57.975Z,24.98
2023-05-01T10:31:58.071Z,24.41
2023-05-01T10:32:58.033Z,23.49
2023-05-01T10:33:57.934Z,22.87
2023-05-01T10:34:58.274Z,22.23
2023-05-01T10:35:57.917Z,22.19
2023-05-01T10:36:57.692Z,22.27
2023-05-01T10:37:57.920Z,22.19
2023-05-01T10:38:57.918Z,22.14
2023-05-01T10:39:57.872Z,22.19
2023-05-01T10:40:57.963Z,22.29
2023-05-01T10:41:57.890Z,22.25
2023-05-01T10:42:57.806Z,22.17
2023-05-01T10:43:57.838Z,22.13
2023-05-01T10:44:58.287Z,22.13
2023-05-01T10:45:57.881Z,22.12
2023-05-01T10:46:58.053Z,21.85
2023-05-01T10:47:57.884Z,21.50
2023-05-01T10:48:57.776Z,21.11
2023-05-01T10:49:57.762Z,21.09
2023-05-01T10:50:57.830Z,20.93
2023-05-01T10:51:57.739Z,20.58
2023-05-01T10:52:57.809Z,20.56
2023-05-01T10:53:57.720Z,20.51
2023-05-01T10:54:57.847Z,20.58
2023-05-01T10:55:57.800Z,20.59
2023-05-01T10:56:57.716Z,20.50
2023-05-01T10:57:57.643Z,20.27
2023-05-01T10:58:57.697Z,19.72
2023-05-01T10:59:57.575Z,19.47
2023-05-01T11:00:57.511Z,19.50
2023-05-01T11:01:57.642Z,19.42
2023-05-01T11:02:57.615Z,19.36
2023-05-01T11:03:57.510Z,19.35
2023-05-01T11:04:57.950Z,19.43
2023-05-01T11:05:57.580Z,19.39
2023-05-01T11:06:57.639Z,19.51
2023-05-01T11:07:57.532Z,19.68
2023-05-01T11:08:57.575Z,19.50
2023-05-01T11:09:57.429Z,19.39
2023-05-01T11:10:57.516Z,19.32
2023-05-01T11:11:57.447Z,19.10
2023-05-01T11:12:57.536Z,18.92
2023-05-01T11:13:57.460Z,18.83
2023-05-01T11:14:57.908Z,18.86
2023-05-01T11:15:57.555Z,18.97
2023-05-01T11:16:57.598Z,19.13
2023-05-01T11:17:57.375Z,19.35
2023-05-01T11:18:57.426Z,19.53
2023-05-01T11:19:57.487Z,19.68
2023-05-01T11:20:57.328Z,19.54
2023-05-01T11:21:57.458Z,19.51
2023-05-01T11:22:57.487Z,19.47
2023-05-01T11:23:57.362Z,19.50
2023-05-01T11:24:57.570Z,19.38
2023-05-01T11:25:57.339Z,19.39
2023-05-01T11:26:57.232Z,19.23
2023-05-01T11:27:57.505Z,19.15
2023-05-01T11:28:57.377Z,18.98
2023-05-01T11:29:57.303Z,18.91
2023-05-01T11:30:57.233Z,18.79
2023-05-01T11:31:57.315Z,18.64
2023-05-01T11:32:57.396Z,18.64
2023-05-01T11:33:57.149Z,18.70
2023-05-01T11:34:57.532Z,18.80
2023-05-01T11:35:57.151Z,18.79
2023-05-01T11:36:57.379Z,18.79
2023-05-01T11:37:57.276Z,18.92
2023-05-01T11:38:57.109Z,18.97
2023-05-01T11:39:57.119Z,18.84
2023-05-01T11:40:57.164Z,18.82
2023-05-01T11:41:57.271Z,18.87
2023-05-01T11:42:57.135Z,18.98
2023-05-01T11:43:57.186Z,19.08
2023-05-01T11:44:57.359Z,19.14
2023-05-01T11:45:57.251Z,19.20
2023-05-01T11:46:57.079Z,19.29
2023-05-01T11:47:57.199Z,19.39
2023-05-01T11:48:57.145Z,19.35
2023-05-01T11:49:57.129Z,19.39
2023-05-01T11:50:57.021Z,19.48
2023-05-01T11:51:57.082Z,19.53
2023-05-01T11:52:57.121Z,19.65
2023-05-01T11:53:56.989Z,19.72
2023-05-01T11:54:56.980Z,19.76
2023-05-01T11:55:56.960Z,19.78
2023-05-01T11:56:56.950Z,19.72
2023-05-01T11:57:56.992Z,19.72
2023-05-01T11:58:56.966Z,19.80
2023-05-01T11:59:56.988Z,19.91
2023-05-01T12:00:56.925Z,19.90
2023-05-01T12:01:56.982Z,19.79
2023-05-01T12:02:57.132Z,19.73
2023-05-01T12:03:56.989Z,19.69
2023-05-01T12:04:57.891Z,19.57
2023-05-01T12:05:57.202Z,19.51
2023-05-01T12:06:56.928Z,19.39
2023-05-01T12:07:56.950Z,19.31
2023-05-01T12:08:56.941Z,19.31
2023-05-01T12:09:57.015Z,19.33
2023-05-01T12:10:56.930Z,19.42
2023-05-01T12:11:56.955Z,19.55
2023-05-01T12:12:56.737Z,19.75
2023-05-01T12:13:56.818Z,19.88
2023-05-01T12:14:57.136Z,19.83
2023-05-01T12:15:56.911Z,19.78
2023-05-01T12:16:56.962Z,19.93
2023-05-01T12:17:56.888Z,20.02
2023-05-01T12:18:56.880Z,20.15
2023-05-01T12:19:56.860Z,20.21
2023-05-01T12:20:56.929Z,20.12
2023-05-01T12:21:56.841Z,19.75
2023-05-01T12:22:56.825Z,19.69
2023-05-01T12:23:56.806Z,19.57
2023-05-01T12:24:56.898Z,19.42
2023-05-01T12:25:56.793Z,19.36
2023-05-01T12:26:56.771Z,19.23
2023-05-01T12:27:56.823Z,19.36
2023-05-01T12:28:56.823Z,19.50
2023-05-01T12:29:56.694Z,19.57
2023-05-01T12:30:56.677Z,19.65
2023-05-01T12:31:56.855Z,19.68
2023-05-01T12:32:56.849Z,19.72
2023-05-01T12:33:56.731Z,19.79
2023-05-01T12:34:57.109Z,19.84
2023-05-01T12:35:56.689Z,19.70
2023-05-01T12:36:56.760Z,19.54
2023-05-01T12:37:56.608Z,19.43
2023-05-01T12:38:56.606Z,19.32
2023-05-01T12:39:56.604Z,19.32
2023-05-01T12:40:56.796Z,19.32
2023-05-01T12:41:56.613Z,19.36
2023-05-01T12:42:56.616Z,19.32
2023-05-01T12:43:56.614Z,19.38
2023-05-01T12:44:56.840Z,19.36
2023-05-01T12:45:56.564Z,19.36
2023-05-01T12:46:56.569Z,19.39
2023-05-01T12:47:56.679Z,19.40
2023-05-01T12:48:56.506Z,19.50
2023-05-01T12:49:56.762Z,19.53
2023-05-01T12:50:56.499Z,19.68
2023-05-01T12:51:56.575Z,19.55
2023-05-01T12:52:56.490Z,19.50
2023-05-01T12:53:56.628Z,19.43
2023-05-01T12:54:56.677Z,19.57
2023-05-01T12:55:56.481Z,19.69
2023-05-01T12:56:56.374Z,19.78
2023-05-01T12:57:56.350Z,19.78
2023-05-01T12:58:56.389Z,19.80
2023-05-01T12:59:56.682Z,19.93
2023-05-01T13:00:56.419Z,19.93
2023-05-01T13:01:56.425Z,19.98
2023-05-01T13:02:56.390Z,20.10